sensor_id;sensor_type;location;lat;lon;timestamp;P1;durP1;ratioP1;P2;durP2;ratioP2
4278;SDS011;2153;47.744;10.580;2022-11-15T00:00:51;19.00;;;7.73;;
4278;SDS011;2153;47.744;10.580;2022-11-15T00:03:18;18.17;;;6.80;;
4278;SDS011;2153;47.744;10.580;2022-11-15T00:05:47;15.53;;;6.33;;
4278;SDS011;2153;47.744;10.580;2022-11-15T00:08:14;19.73;;;7.17;;
4278;SDS011;2153;47.744;10.580;2022-11-15T00:10:41;19.80;;;7.33;;
4278;SDS011;2153;47.744;10.580;2022-11-15T00:13:09;19.53;;;6.20;;
4278;SDS011;2153;47.744;10.580;2022-11-15T00:15:38;19.10;;;6.60;;
4278;SDS011;2153;47.744;10.580;2022-11-15T00:18:09;15.90;;;5.60;;
4278;SDS011;2153;47.744;10.580;2022-11-15T00:20:38;16.50;;;4.73;;
4278;SDS011;2153;47.744;10.580;2022-11-15T00:23:05;14.20;;;4.40;;
4278;SDS011;2153;47.744;10.580;2022-11-15T00:25:32;13.20;;;3.93;;
4278;SDS011;2153;47.744;10.580;2022-11-15T00:28:00;16.07;;;5.60;;
4278;SDS011;2153;47.744;10.580;2022-11-15T00:30:27;16.90;;;5.10;;
4278;SDS011;2153;47.744;10.580;2022-11-15T00:32:55;22.43;;;10.53;;
4278;SDS011;2153;47.744;10.580;2022-11-15T00:35:22;30.20;;;15.90;;
4278;SDS011;2153;47.744;10.580;2022-11-15T00:37:49;28.50;;;13.37;;
4278;SDS011;2153;47.744;10.580;2022-11-15T00:40:16;22.20;;;9.73;;
4278;SDS011;2153;47.744;10.580;2022-11-15T00:42:43;25.40;;;11.37;;
4278;SDS011;2153;47.744;10.580;2022-11-15T00:45:09;21.27;;;8.37;;
4278;SDS011;2153;47.744;10.580;2022-11-15T00:47:36;19.87;;;6.40;;
4278;SDS011;2153;47.744;10.580;2022-11-15T00:50:05;15.67;;;4.70;;
4278;SDS011;2153;47.744;10.580;2022-11-15T00:52:32;17.73;;;6.30;;
4278;SDS011;2153;47.744;10.580;2022-11-15T00:54:59;18.80;;;7.63;;
4278;SDS011;2153;47.744;10.580;2022-11-15T00:57:25;17.03;;;5.27;;
4278;SDS011;2153;47.744;10.580;2022-11-15T00:59:52;14.73;;;4.57;;
4278;SDS011;2153;47.744;10.580;2022-11-15T01:02:19;13.17;;;3.93;;
4278;SDS011;2153;47.744;10.580;2022-11-15T01:04:46;14.47;;;3.60;;
4278;SDS011;2153;47.744;10.580;2022-11-15T01:07:14;12.73;;;3.20;;
4278;SDS011;2153;47.744;10.580;2022-11-15T01:09:41;15.30;;;3.93;;
4278;SDS011;2153;47.744;10.580;2022-11-15T01:12:08;13.50;;;2.90;;
4278;SDS011;2153;47.744;10.580;2022-11-15T01:14:35;15.60;;;4.10;;
4278;SDS011;2153;47.744;10.580;2022-11-15T01:17:02;13.63;;;3.50;;
4278;SDS011;2153;47.744;10.580;2022-11-15T01:19:28;13.00;;;3.53;;
4278;SDS011;2153;47.744;10.580;2022-11-15T01:21:55;15.67;;;3.67;;
4278;SDS011;2153;47.744;10.580;2022-11-15T01:24:23;12.23;;;2.80;;
4278;SDS011;2153;47.744;10.580;2022-11-15T01:26:50;14.40;;;3.80;;
4278;SDS011;2153;47.744;10.580;2022-11-15T01:29:17;13.37;;;3.83;;
4278;SDS011;2153;47.744;10.580;2022-11-15T01:31:44;13.27;;;3.13;;
4278;SDS011;2153;47.744;10.580;2022-11-15T01:34:10;13.60;;;3.47;;
4278;SDS011;2153;47.744;10.580;2022-11-15T01:36:40;13.00;;;3.80;;
4278;SDS011;2153;47.744;10.580;2022-11-15T01:39:07;11.37;;;2.70;;
4278;SDS011;2153;47.744;10.580;2022-11-15T01:41:35;15.23;;;3.60;;
4278;SDS011;2153;47.744;10.580;2022-11-15T01:47:18;12.23;;;2.90;;
4278;SDS011;2153;47.744;10.580;2022-11-15T01:49:49;17.27;;;2.90;;
4278;SDS011;2153;47.744;10.580;2022-11-15T01:52:22;15.27;;;3.50;;
4278;SDS011;2153;47.744;10.580;2022-11-15T01:54:53;13.93;;;3.63;;
4278;SDS011;2153;47.744;10.580;2022-11-15T01:57:25;12.87;;;3.67;;
4278;SDS011;2153;47.744;10.580;2022-11-15T01:59:52;12.40;;;3.07;;
4278;SDS011;2153;47.744;10.580;2022-11-15T02:02:20;12.40;;;3.30;;
4278;SDS011;2153;47.744;10.580;2022-11-15T02:04:47;13.50;;;3.77;;
4278;SDS011;2153;47.744;10.580;2022-11-15T02:07:15;12.80;;;3.43;;
4278;SDS011;2153;47.744;10.580;2022-11-15T02:09:43;14.70;;;3.90;;
4278;SDS011;2153;47.744;10.580;2022-11-15T02:12:12;13.60;;;3.40;;
4278;SDS011;2153;47.744;10.580;2022-11-15T02:14:44;12.13;;;3.10;;
4278;SDS011;2153;47.744;10.580;2022-11-15T02:17:21;10.83;;;2.67;;
4278;SDS011;2153;47.744;10.580;2022-11-15T02:20:09;12.77;;;2.67;;
4278;SDS011;2153;47.744;10.580;2022-11-15T02:23:06;12.80;;;3.20;;
4278;SDS011;2153;47.744;10.580;2022-11-15T02:25:52;14.97;;;3.13;;
4278;SDS011;2153;47.744;10.580;2022-11-15T02:28:38;12.20;;;2.80;;
4278;SDS011;2153;47.744;10.580;2022-11-15T02:31:19;12.07;;;3.07;;
4278;SDS011;2153;47.744;10.580;2022-11-15T02:33:53;14.37;;;3.40;;
4278;SDS011;2153;47.744;10.580;2022-11-15T02:36:29;11.90;;;3.00;;
4278;SDS011;2153;47.744;10.580;2022-11-15T02:39:07;15.47;;;2.93;;
4278;SDS011;2153;47.744;10.580;2022-11-15T02:41:41;12.93;;;2.80;;
4278;SDS011;2153;47.744;10.580;2022-11-15T02:44:13;12.30;;;2.93;;
4278;SDS011;2153;47.744;10.580;2022-11-15T02:46:46;12.10;;;3.00;;
4278;SDS011;2153;47.744;10.580;2022-11-15T02:49:34;13.30;;;3.50;;
4278;SDS011;2153;47.744;10.580;2022-11-15T02:52:03;12.87;;;3.37;;
4278;SDS011;2153;47.744;10.580;2022-11-15T02:54:30;13.70;;;4.03;;
4278;SDS011;2153;47.744;10.580;2022-11-15T02:56:59;18.40;;;3.83;;
4278;SDS011;2153;47.744;10.580;2022-11-15T02:59:49;12.47;;;3.20;;
4278;SDS011;2153;47.744;10.580;2022-11-15T03:02:40;11.63;;;2.77;;
4278;SDS011;2153;47.744;10.580;2022-11-15T03:05:19;13.07;;;3.00;;
4278;SDS011;2153;47.744;10.580;2022-11-15T03:07:53;12.57;;;3.03;;
4278;SDS011;2153;47.744;10.580;2022-11-15T03:10:29;19.33;;;3.27;;
4278;SDS011;2153;47.744;10.580;2022-11-15T03:13:04;11.57;;;2.30;;
4278;SDS011;2153;47.744;10.580;2022-11-15T03:15:40;14.40;;;2.90;;
4278;SDS011;2153;47.744;10.580;2022-11-15T03:18:15;11.70;;;2.80;;
4278;SDS011;2153;47.744;10.580;2022-11-15T03:20:47;13.57;;;3.20;;
4278;SDS011;2153;47.744;10.580;2022-11-15T03:23:15;11.67;;;2.60;;
4278;SDS011;2153;47.744;10.580;2022-11-15T03:25:44;11.67;;;2.70;;
4278;SDS011;2153;47.744;10.580;2022-11-15T03:28:15;12.57;;;2.73;;
4278;SDS011;2153;47.744;10.580;2022-11-15T03:30:47;14.80;;;3.23;;
4278;SDS011;2153;47.744;10.580;2022-11-15T03:33:17;12.87;;;3.10;;
4278;SDS011;2153;47.744;10.580;2022-11-15T03:35:45;12.50;;;2.97;;
4278;SDS011;2153;47.744;10.580;2022-11-15T03:38:14;11.90;;;3.00;;
4278;SDS011;2153;47.744;10.580;2022-11-15T03:40:47;14.13;;;2.93;;
4278;SDS011;2153;47.744;10.580;2022-11-15T03:43:20;12.30;;;2.60;;
4278;SDS011;2153;47.744;10.580;2022-11-15T03:45:55;15.47;;;2.90;;
4278;SDS011;2153;47.744;10.580;2022-11-15T03:48:29;13.40;;;3.03;;
4278;SDS011;2153;47.744;10.580;2022-11-15T03:51:00;13.07;;;2.80;;
4278;SDS011;2153;47.744;10.580;2022-11-15T03:53:28;14.87;;;3.20;;
4278;SDS011;2153;47.744;10.580;2022-11-15T03:55:56;12.63;;;2.40;;
4278;SDS011;2153;47.744;10.580;2022-11-15T03:58:23;15.00;;;3.10;;
4278;SDS011;2153;47.744;10.580;2022-11-15T04:00:50;11.93;;;2.50;;
4278;SDS011;2153;47.744;10.580;2022-11-15T04:03:17;11.33;;;2.57;;
4278;SDS011;2153;47.744;10.580;2022-11-15T04:05:45;10.60;;;2.40;;
4278;SDS011;2153;47.744;10.580;2022-11-15T04:08:12;14.13;;;3.50;;
4278;SDS011;2153;47.744;10.580;2022-11-15T04:10:38;11.90;;;2.93;;
4278;SDS011;2153;47.744;10.580;2022-11-15T04:13:05;12.50;;;2.60;;
4278;SDS011;2153;47.744;10.580;2022-11-15T04:15:32;14.00;;;2.80;;
4278;SDS011;2153;47.744;10.580;2022-11-15T04:17:59;13.30;;;2.90;;
4278;SDS011;2153;47.744;10.580;2022-11-15T04:20:26;12.07;;;2.70;;
4278;SDS011;2153;47.744;10.580;2022-11-15T04:23:14;13.27;;;2.40;;
4278;SDS011;2153;47.744;10.580;2022-11-15T04:26:01;13.93;;;2.80;;
4278;SDS011;2153;47.744;10.580;2022-11-15T04:28:30;15.63;;;2.70;;
4278;SDS011;2153;47.744;10.580;2022-11-15T04:30:57;11.77;;;2.70;;
4278;SDS011;2153;47.744;10.580;2022-11-15T04:33:23;12.00;;;2.67;;
4278;SDS011;2153;47.744;10.580;2022-11-15T04:35:51;11.30;;;2.50;;
4278;SDS011;2153;47.744;10.580;2022-11-15T04:38:36;13.83;;;2.73;;
4278;SDS011;2153;47.744;10.580;2022-11-15T04:41:03;12.83;;;2.83;;
4278;SDS011;2153;47.744;10.580;2022-11-15T04:43:30;13.37;;;3.70;;
4278;SDS011;2153;47.744;10.580;2022-11-15T04:45:57;12.77;;;2.97;;
4278;SDS011;2153;47.744;10.580;2022-11-15T04:48:23;11.33;;;2.53;;
4278;SDS011;2153;47.744;10.580;2022-11-15T04:50:50;12.10;;;3.13;;
4278;SDS011;2153;47.744;10.580;2022-11-15T04:53:17;11.97;;;2.57;;
4278;SDS011;2153;47.744;10.580;2022-11-15T04:55:45;13.93;;;3.00;;
4278;SDS011;2153;47.744;10.580;2022-11-15T04:58:12;13.03;;;2.70;;
4278;SDS011;2153;47.744;10.580;2022-11-15T05:00:39;16.77;;;2.43;;
4278;SDS011;2153;47.744;10.580;2022-11-15T05:03:06;11.57;;;2.50;;
4278;SDS011;2153;47.744;10.580;2022-11-15T05:05:52;12.63;;;3.13;;
4278;SDS011;2153;47.744;10.580;2022-11-15T05:08:19;13.90;;;3.37;;
4278;SDS011;2153;47.744;10.580;2022-11-15T05:10:47;15.97;;;6.20;;
4278;SDS011;2153;47.744;10.580;2022-11-15T05:13:14;21.70;;;8.03;;
4278;SDS011;2153;47.744;10.580;2022-11-15T05:15:40;18.47;;;6.73;;
4278;SDS011;2153;47.744;10.580;2022-11-15T05:18:07;17.20;;;6.30;;
4278;SDS011;2153;47.744;10.580;2022-11-15T05:20:34;17.73;;;4.80;;
4278;SDS011;2153;47.744;10.580;2022-11-15T05:23:01;18.43;;;6.10;;
4278;SDS011;2153;47.744;10.580;2022-11-15T05:25:28;22.53;;;6.10;;
4278;SDS011;2153;47.744;10.580;2022-11-15T05:27:56;14.87;;;4.90;;
4278;SDS011;2153;47.744;10.580;2022-11-15T05:30:23;14.57;;;4.50;;
4278;SDS011;2153;47.744;10.580;2022-11-15T05:32:50;13.40;;;4.10;;
4278;SDS011;2153;47.744;10.580;2022-11-15T05:35:18;14.20;;;3.67;;
4278;SDS011;2153;47.744;10.580;2022-11-15T05:37:52;13.97;;;4.20;;
4278;SDS011;2153;47.744;10.580;2022-11-15T05:40:18;11.90;;;3.30;;
4278;SDS011;2153;47.744;10.580;2022-11-15T05:42:45;13.80;;;3.30;;
4278;SDS011;2153;47.744;10.580;2022-11-15T05:45:14;12.83;;;3.13;;
4278;SDS011;2153;47.744;10.580;2022-11-15T05:47:41;15.37;;;3.87;;
4278;SDS011;2153;47.744;10.580;2022-11-15T05:50:10;35.33;;;5.97;;
4278;SDS011;2153;47.744;10.580;2022-11-15T05:52:38;17.70;;;7.00;;
4278;SDS011;2153;47.744;10.580;2022-11-15T05:55:05;14.00;;;4.90;;
4278;SDS011;2153;47.744;10.580;2022-11-15T05:57:34;13.50;;;4.00;;
4278;SDS011;2153;47.744;10.580;2022-11-15T06:00:02;13.20;;;3.10;;
4278;SDS011;2153;47.744;10.580;2022-11-15T06:02:31;12.77;;;2.70;;
4278;SDS011;2153;47.744;10.580;2022-11-15T06:04:58;15.07;;;4.47;;
4278;SDS011;2153;47.744;10.580;2022-11-15T06:07:25;19.53;;;5.70;;
4278;SDS011;2153;47.744;10.580;2022-11-15T06:09:51;14.23;;;4.60;;
4278;SDS011;2153;47.744;10.580;2022-11-15T06:12:18;14.60;;;4.20;;
4278;SDS011;2153;47.744;10.580;2022-11-15T06:14:45;11.03;;;2.73;;
4278;SDS011;2153;47.744;10.580;2022-11-15T06:17:12;12.03;;;2.53;;
4278;SDS011;2153;47.744;10.580;2022-11-15T06:19:40;14.40;;;3.00;;
4278;SDS011;2153;47.744;10.580;2022-11-15T06:22:07;13.77;;;3.53;;
4278;SDS011;2153;47.744;10.580;2022-11-15T06:24:34;12.93;;;2.67;;
4278;SDS011;2153;47.744;10.580;2022-11-15T06:27:01;16.67;;;4.20;;
4278;SDS011;2153;47.744;10.580;2022-11-15T06:29:28;14.03;;;4.13;;
4278;SDS011;2153;47.744;10.580;2022-11-15T06:31:54;14.20;;;3.83;;
4278;SDS011;2153;47.744;10.580;2022-11-15T06:34:21;12.13;;;3.10;;
4278;SDS011;2153;47.744;10.580;2022-11-15T06:36:49;13.47;;;3.80;;
4278;SDS011;2153;47.744;10.580;2022-11-15T06:39:16;10.60;;;2.23;;
4278;SDS011;2153;47.744;10.580;2022-11-15T06:41:43;12.20;;;2.37;;
4278;SDS011;2153;47.744;10.580;2022-11-15T06:44:09;10.87;;;2.67;;
4278;SDS011;2153;47.744;10.580;2022-11-15T06:46:36;11.97;;;3.23;;
4278;SDS011;2153;47.744;10.580;2022-11-15T06:49:03;20.60;;;5.27;;
4278;SDS011;2153;47.744;10.580;2022-11-15T06:51:30;21.90;;;8.30;;
4278;SDS011;2153;47.744;10.580;2022-11-15T06:53:58;29.47;;;12.07;;
4278;SDS011;2153;47.744;10.580;2022-11-15T06:56:25;17.17;;;6.43;;
4278;SDS011;2153;47.744;10.580;2022-11-15T06:58:52;18.40;;;5.87;;
4278;SDS011;2153;47.744;10.580;2022-11-15T07:01:18;13.40;;;3.80;;
4278;SDS011;2153;47.744;10.580;2022-11-15T07:03:45;13.37;;;2.90;;
4278;SDS011;2153;47.744;10.580;2022-11-15T07:06:12;13.20;;;2.70;;
4278;SDS011;2153;47.744;10.580;2022-11-15T07:08:39;11.87;;;2.63;;
4278;SDS011;2153;47.744;10.580;2022-11-15T07:11:08;12.37;;;2.80;;
4278;SDS011;2153;47.744;10.580;2022-11-15T07:13:35;12.80;;;3.10;;
4278;SDS011;2153;47.744;10.580;2022-11-15T07:16:03;12.60;;;3.30;;
4278;SDS011;2153;47.744;10.580;2022-11-15T07:18:31;13.07;;;2.60;;
4278;SDS011;2153;47.744;10.580;2022-11-15T07:21:00;12.00;;;2.57;;
4278;SDS011;2153;47.744;10.580;2022-11-15T07:23:28;23.40;;;2.07;;
4278;SDS011;2153;47.744;10.580;2022-11-15T07:25:56;12.37;;;2.80;;
4278;SDS011;2153;47.744;10.580;2022-11-15T07:28:24;12.20;;;2.70;;
4278;SDS011;2153;47.744;10.580;2022-11-15T07:30:51;14.60;;;2.10;;
4278;SDS011;2153;47.744;10.580;2022-11-15T07:33:18;12.00;;;2.47;;
4278;SDS011;2153;47.744;10.580;2022-11-15T07:35:45;11.80;;;1.97;;
4278;SDS011;2153;47.744;10.580;2022-11-15T07:38:14;16.13;;;1.90;;
4278;SDS011;2153;47.744;10.580;2022-11-15T07:40:41;12.60;;;2.07;;
4278;SDS011;2153;47.744;10.580;2022-11-15T07:43:07;12.00;;;2.33;;
4278;SDS011;2153;47.744;10.580;2022-11-15T07:45:41;11.40;;;2.07;;
4278;SDS011;2153;47.744;10.580;2022-11-15T07:48:08;14.37;;;2.60;;
4278;SDS011;2153;47.744;10.580;2022-11-15T07:50:35;13.30;;;2.67;;
4278;SDS011;2153;47.744;10.580;2022-11-15T07:53:02;12.87;;;2.20;;
4278;SDS011;2153;47.744;10.580;2022-11-15T07:55:29;11.60;;;2.17;;
4278;SDS011;2153;47.744;10.580;2022-11-15T07:57:59;13.83;;;2.00;;
4278;SDS011;2153;47.744;10.580;2022-11-15T08:00:27;13.50;;;2.50;;
4278;SDS011;2153;47.744;10.580;2022-11-15T08:03:02;12.70;;;2.63;;
4278;SDS011;2153;47.744;10.580;2022-11-15T08:05:29;12.40;;;2.40;;
4278;SDS011;2153;47.744;10.580;2022-11-15T08:07:56;12.17;;;2.07;;
4278;SDS011;2153;47.744;10.580;2022-11-15T08:10:23;12.30;;;2.30;;
4278;SDS011;2153;47.744;10.580;2022-11-15T08:12:56;13.43;;;1.90;;
4278;SDS011;2153;47.744;10.580;2022-11-15T08:15:23;14.27;;;2.60;;
4278;SDS011;2153;47.744;10.580;2022-11-15T08:17:52;18.47;;;6.00;;
4278;SDS011;2153;47.744;10.580;2022-11-15T08:20:21;18.40;;;4.63;;
4278;SDS011;2153;47.744;10.580;2022-11-15T08:22:48;16.60;;;4.40;;
4278;SDS011;2153;47.744;10.580;2022-11-15T08:25:15;19.50;;;4.70;;
4278;SDS011;2153;47.744;10.580;2022-11-15T08:27:42;16.00;;;3.60;;
4278;SDS011;2153;47.744;10.580;2022-11-15T08:30:10;18.23;;;3.47;;
4278;SDS011;2153;47.744;10.580;2022-11-15T08:32:37;15.80;;;4.10;;
4278;SDS011;2153;47.744;10.580;2022-11-15T08:35:04;15.20;;;3.63;;
4278;SDS011;2153;47.744;10.580;2022-11-15T08:37:33;17.90;;;4.00;;
4278;SDS011;2153;47.744;10.580;2022-11-15T08:40:00;17.43;;;4.30;;
4278;SDS011;2153;47.744;10.580;2022-11-15T08:42:27;20.00;;;5.23;;
4278;SDS011;2153;47.744;10.580;2022-11-15T08:44:53;21.60;;;4.10;;
4278;SDS011;2153;47.744;10.580;2022-11-15T08:47:20;15.80;;;4.30;;
4278;SDS011;2153;47.744;10.580;2022-11-15T08:49:47;19.87;;;5.70;;
4278;SDS011;2153;47.744;10.580;2022-11-15T08:52:14;19.87;;;6.07;;
4278;SDS011;2153;47.744;10.580;2022-11-15T08:54:42;22.70;;;4.77;;
4278;SDS011;2153;47.744;10.580;2022-11-15T08:57:09;22.47;;;5.30;;
4278;SDS011;2153;47.744;10.580;2022-11-15T08:59:36;20.27;;;6.70;;
4278;SDS011;2153;47.744;10.580;2022-11-15T09:02:03;31.73;;;6.10;;
4278;SDS011;2153;47.744;10.580;2022-11-15T09:04:30;19.50;;;4.97;;
4278;SDS011;2153;47.744;10.580;2022-11-15T09:06:57;18.70;;;5.50;;
4278;SDS011;2153;47.744;10.580;2022-11-15T09:09:24;19.70;;;5.00;;
4278;SDS011;2153;47.744;10.580;2022-11-15T09:11:52;20.97;;;5.50;;
4278;SDS011;2153;47.744;10.580;2022-11-15T09:14:19;17.40;;;4.13;;
4278;SDS011;2153;47.744;10.580;2022-11-15T09:16:45;17.13;;;3.87;;
4278;SDS011;2153;47.744;10.580;2022-11-15T09:19:12;18.17;;;4.30;;
4278;SDS011;2153;47.744;10.580;2022-11-15T09:21:39;26.87;;;3.70;;
4278;SDS011;2153;47.744;10.580;2022-11-15T09:24:06;12.97;;;2.07;;
4278;SDS011;2153;47.744;10.580;2022-11-15T09:26:33;13.63;;;3.03;;
4278;SDS011;2153;47.744;10.580;2022-11-15T09:29:02;16.37;;;2.60;;
4278;SDS011;2153;47.744;10.580;2022-11-15T09:31:28;14.60;;;1.90;;
4278;SDS011;2153;47.744;10.580;2022-11-15T09:33:56;14.70;;;3.33;;
4278;SDS011;2153;47.744;10.580;2022-11-15T09:36:23;13.70;;;2.40;;
4278;SDS011;2153;47.744;10.580;2022-11-15T09:38:50;14.00;;;2.70;;
4278;SDS011;2153;47.744;10.580;2022-11-15T09:41:24;14.63;;;2.63;;
4278;SDS011;2153;47.744;10.580;2022-11-15T09:44:05;13.23;;;2.73;;
4278;SDS011;2153;47.744;10.580;2022-11-15T09:46:44;13.23;;;2.30;;
4278;SDS011;2153;47.744;10.580;2022-11-15T09:49:25;15.13;;;2.13;;
4278;SDS011;2153;47.744;10.580;2022-11-15T09:51:53;13.07;;;1.90;;
4278;SDS011;2153;47.744;10.580;2022-11-15T09:54:26;14.07;;;2.17;;
4278;SDS011;2153;47.744;10.580;2022-11-15T09:56:56;14.73;;;2.43;;
4278;SDS011;2153;47.744;10.580;2022-11-15T09:59:36;17.60;;;2.40;;
4278;SDS011;2153;47.744;10.580;2022-11-15T10:02:16;13.30;;;2.30;;
4278;SDS011;2153;47.744;10.580;2022-11-15T10:05:03;17.07;;;1.97;;
4278;SDS011;2153;47.744;10.580;2022-11-15T10:07:34;12.80;;;2.00;;
4278;SDS011;2153;47.744;10.580;2022-11-15T10:10:12;15.20;;;1.70;;
4278;SDS011;2153;47.744;10.580;2022-11-15T10:12:45;15.03;;;2.27;;
4278;SDS011;2153;47.744;10.580;2022-11-15T10:15:16;11.80;;;1.90;;
4278;SDS011;2153;47.744;10.580;2022-11-15T10:20:50;15.20;;;1.67;;
4278;SDS011;2153;47.744;10.580;2022-11-15T10:23:20;12.17;;;1.80;;
4278;SDS011;2153;47.744;10.580;2022-11-15T10:25:49;11.93;;;1.80;;
4278;SDS011;2153;47.744;10.580;2022-11-15T10:28:21;12.80;;;2.00;;
4278;SDS011;2153;47.744;10.580;2022-11-15T10:30:53;12.50;;;2.03;;
4278;SDS011;2153;47.744;10.580;2022-11-15T10:33:25;20.43;;;2.60;;
4278;SDS011;2153;47.744;10.580;2022-11-15T10:36:14;15.13;;;2.43;;
4278;SDS011;2153;47.744;10.580;2022-11-15T10:38:51;14.23;;;2.30;;
4278;SDS011;2153;47.744;10.580;2022-11-15T10:41:27;11.90;;;1.70;;
4278;SDS011;2153;47.744;10.580;2022-11-15T10:44:07;12.33;;;2.17;;
4278;SDS011;2153;47.744;10.580;2022-11-15T10:46:48;14.50;;;2.20;;
4278;SDS011;2153;47.744;10.580;2022-11-15T10:49:39;13.30;;;1.90;;
4278;SDS011;2153;47.744;10.580;2022-11-15T10:52:20;13.40;;;2.03;;
4278;SDS011;2153;47.744;10.580;2022-11-15T10:54:47;14.20;;;2.20;;
4278;SDS011;2153;47.744;10.580;2022-11-15T10:57:17;24.13;;;2.57;;
4278;SDS011;2153;47.744;10.580;2022-11-15T10:59:49;16.00;;;2.33;;
4278;SDS011;2153;47.744;10.580;2022-11-15T11:02:30;14.40;;;2.10;;
4278;SDS011;2153;47.744;10.580;2022-11-15T11:04:58;13.10;;;2.00;;
4278;SDS011;2153;47.744;10.580;2022-11-15T11:07:26;11.77;;;1.90;;
4278;SDS011;2153;47.744;10.580;2022-11-15T11:09:58;13.50;;;1.80;;
4278;SDS011;2153;47.744;10.580;2022-11-15T11:12:27;14.33;;;1.73;;
4278;SDS011;2153;47.744;10.580;2022-11-15T11:14:57;14.10;;;2.07;;
4278;SDS011;2153;47.744;10.580;2022-11-15T11:17:27;13.50;;;2.43;;
4278;SDS011;2153;47.744;10.580;2022-11-15T11:20:04;13.77;;;2.50;;
4278;SDS011;2153;47.744;10.580;2022-11-15T11:22:38;14.10;;;2.27;;
4278;SDS011;2153;47.744;10.580;2022-11-15T11:25:15;12.30;;;1.97;;
4278;SDS011;2153;47.744;10.580;2022-11-15T11:27:51;18.17;;;2.47;;
4278;SDS011;2153;47.744;10.580;2022-11-15T11:30:34;14.07;;;2.63;;
4278;SDS011;2153;47.744;10.580;2022-11-15T11:33:12;15.40;;;2.43;;
4278;SDS011;2153;47.744;10.580;2022-11-15T11:35:45;17.00;;;1.90;;
4278;SDS011;2153;47.744;10.580;2022-11-15T11:38:30;13.70;;;2.20;;
4278;SDS011;2153;47.744;10.580;2022-11-15T11:41:05;12.60;;;1.93;;
4278;SDS011;2153;47.744;10.580;2022-11-15T11:43:41;13.90;;;3.13;;
4278;SDS011;2153;47.744;10.580;2022-11-15T11:46:26;20.13;;;3.10;;
4278;SDS011;2153;47.744;10.580;2022-11-15T11:49:15;16.60;;;2.60;;
4278;SDS011;2153;47.744;10.580;2022-11-15T11:51:47;12.87;;;1.87;;
4278;SDS011;2153;47.744;10.580;2022-11-15T11:54:20;19.10;;;3.50;;
4278;SDS011;2153;47.744;10.580;2022-11-15T11:56:51;13.93;;;2.23;;
4278;SDS011;2153;47.744;10.580;2022-11-15T11:59:25;13.30;;;2.33;;
4278;SDS011;2153;47.744;10.580;2022-11-15T12:02:01;20.63;;;2.53;;
4278;SDS011;2153;47.744;10.580;2022-11-15T12:04:38;21.17;;;2.60;;
4278;SDS011;2153;47.744;10.580;2022-11-15T12:07:07;12.70;;;2.20;;
4278;SDS011;2153;47.744;10.580;2022-11-15T12:09:41;13.23;;;2.17;;
4278;SDS011;2153;47.744;10.580;2022-11-15T12:12:13;14.97;;;2.20;;
4278;SDS011;2153;47.744;10.580;2022-11-15T12:14:45;13.90;;;1.80;;
4278;SDS011;2153;47.744;10.580;2022-11-15T12:17:14;14.00;;;2.10;;
4278;SDS011;2153;47.744;10.580;2022-11-15T12:19:47;14.80;;;1.97;;
4278;SDS011;2153;47.744;10.580;2022-11-15T12:22:16;14.57;;;2.30;;
4278;SDS011;2153;47.744;10.580;2022-11-15T12:24:48;15.90;;;3.23;;
4278;SDS011;2153;47.744;10.580;2022-11-15T12:27:31;13.53;;;2.23;;
4278;SDS011;2153;47.744;10.580;2022-11-15T12:30:02;12.20;;;2.30;;
4278;SDS011;2153;47.744;10.580;2022-11-15T12:32:36;13.20;;;2.57;;
4278;SDS011;2153;47.744;10.580;2022-11-15T12:35:20;15.53;;;3.30;;
4278;SDS011;2153;47.744;10.580;2022-11-15T12:37:51;14.30;;;3.00;;
4278;SDS011;2153;47.744;10.580;2022-11-15T12:40:31;16.77;;;3.33;;
4278;SDS011;2153;47.744;10.580;2022-11-15T12:43:01;14.87;;;3.30;;
4278;SDS011;2153;47.744;10.580;2022-11-15T12:45:53;15.50;;;3.20;;
4278;SDS011;2153;47.744;10.580;2022-11-15T12:57:41;14.23;;;2.60;;
4278;SDS011;2153;47.744;10.580;2022-11-15T13:03:17;16.90;;;3.33;;
4278;SDS011;2153;47.744;10.580;2022-11-15T13:08:39;18.40;;;3.60;;
4278;SDS011;2153;47.744;10.580;2022-11-15T13:17:23;18.30;;;3.40;;
4278;SDS011;2153;47.744;10.580;2022-11-15T13:20:14;16.00;;;3.93;;
4278;SDS011;2153;47.744;10.580;2022-11-15T13:22:45;16.57;;;2.90;;
4278;SDS011;2153;47.744;10.580;2022-11-15T13:25:18;14.40;;;3.20;;
4278;SDS011;2153;47.744;10.580;2022-11-15T13:27:50;15.23;;;2.53;;
4278;SDS011;2153;47.744;10.580;2022-11-15T13:30:21;14.23;;;3.10;;
4278;SDS011;2153;47.744;10.580;2022-11-15T13:32:49;13.97;;;3.13;;
4278;SDS011;2153;47.744;10.580;2022-11-15T13:35:20;14.10;;;2.90;;
4278;SDS011;2153;47.744;10.580;2022-11-15T13:37:49;15.07;;;2.90;;
4278;SDS011;2153;47.744;10.580;2022-11-15T13:40:22;15.10;;;3.30;;
4278;SDS011;2153;47.744;10.580;2022-11-15T13:42:52;14.33;;;3.03;;
4278;SDS011;2153;47.744;10.580;2022-11-15T13:45:21;16.53;;;2.93;;
4278;SDS011;2153;47.744;10.580;2022-11-15T13:47:52;15.07;;;2.57;;
4278;SDS011;2153;47.744;10.580;2022-11-15T13:50:21;14.43;;;2.57;;
4278;SDS011;2153;47.744;10.580;2022-11-15T13:52:51;24.60;;;4.90;;
4278;SDS011;2153;47.744;10.580;2022-11-15T13:55:19;15.97;;;3.50;;
4278;SDS011;2153;47.744;10.580;2022-11-15T13:57:48;16.07;;;3.27;;
4278;SDS011;2153;47.744;10.580;2022-11-15T14:00:30;15.47;;;3.10;;
4278;SDS011;2153;47.744;10.580;2022-11-15T14:03:07;14.63;;;3.70;;
4278;SDS011;2153;47.744;10.580;2022-11-15T14:05:41;14.00;;;3.27;;
4278;SDS011;2153;47.744;10.580;2022-11-15T14:08:13;15.50;;;3.90;;
4278;SDS011;2153;47.744;10.580;2022-11-15T14:13:35;18.20;;;4.20;;
4278;SDS011;2153;47.744;10.580;2022-11-15T14:16:13;14.63;;;3.33;;
4278;SDS011;2153;47.744;10.580;2022-11-15T14:18:43;14.77;;;3.60;;
4278;SDS011;2153;47.744;10.580;2022-11-15T14:21:12;14.20;;;3.40;;
4278;SDS011;2153;47.744;10.580;2022-11-15T14:23:39;14.87;;;3.67;;
4278;SDS011;2153;47.744;10.580;2022-11-15T14:26:10;17.57;;;3.60;;
4278;SDS011;2153;47.744;10.580;2022-11-15T14:28:51;16.50;;;3.50;;
4278;SDS011;2153;47.744;10.580;2022-11-15T14:31:20;21.63;;;4.00;;
4278;SDS011;2153;47.744;10.580;2022-11-15T14:33:48;18.63;;;4.63;;
4278;SDS011;2153;47.744;10.580;2022-11-15T14:36:18;17.30;;;4.00;;
4278;SDS011;2153;47.744;10.580;2022-11-15T14:38:47;15.30;;;4.13;;
4278;SDS011;2153;47.744;10.580;2022-11-15T14:41:18;16.37;;;3.60;;
4278;SDS011;2153;47.744;10.580;2022-11-15T14:43:46;15.20;;;3.80;;
4278;SDS011;2153;47.744;10.580;2022-11-15T14:46:13;15.23;;;3.83;;
4278;SDS011;2153;47.744;10.580;2022-11-15T14:48:41;16.17;;;4.37;;
4278;SDS011;2153;47.744;10.580;2022-11-15T14:51:09;16.60;;;4.20;;
4278;SDS011;2153;47.744;10.580;2022-11-15T14:53:38;15.30;;;3.77;;
4278;SDS011;2153;47.744;10.580;2022-11-15T14:56:06;20.23;;;4.43;;
4278;SDS011;2153;47.744;10.580;2022-11-15T14:58:33;16.07;;;3.50;;
4278;SDS011;2153;47.744;10.580;2022-11-15T15:01:00;22.17;;;5.83;;
4278;SDS011;2153;47.744;10.580;2022-11-15T15:03:29;18.60;;;4.40;;
4278;SDS011;2153;47.744;10.580;2022-11-15T15:05:57;15.53;;;3.97;;
4278;SDS011;2153;47.744;10.580;2022-11-15T15:08:23;16.50;;;5.60;;
4278;SDS011;2153;47.744;10.580;2022-11-15T15:10:50;17.93;;;5.17;;
4278;SDS011;2153;47.744;10.580;2022-11-15T15:13:18;27.03;;;6.00;;
4278;SDS011;2153;47.744;10.580;2022-11-15T15:15:46;17.00;;;5.00;;
4278;SDS011;2153;47.744;10.580;2022-11-15T15:18:14;15.87;;;5.00;;
4278;SDS011;2153;47.744;10.580;2022-11-15T15:20:41;24.63;;;7.73;;
4278;SDS011;2153;47.744;10.580;2022-11-15T15:23:15;26.60;;;10.63;;
4278;SDS011;2153;47.744;10.580;2022-11-15T15:25:42;19.53;;;7.03;;
4278;SDS011;2153;47.744;10.580;2022-11-15T15:28:10;21.53;;;7.27;;
4278;SDS011;2153;47.744;10.580;2022-11-15T15:30:37;18.53;;;5.83;;
4278;SDS011;2153;47.744;10.580;2022-11-15T15:33:04;20.67;;;6.20;;
4278;SDS011;2153;47.744;10.580;2022-11-15T15:35:31;16.83;;;4.50;;
4278;SDS011;2153;47.744;10.580;2022-11-15T15:38:00;22.73;;;7.50;;